Latest Coastal Weather Observations for Gove Airport

IDD60701

Issued at 6:11 pm CST Tuesday 27 September 2016 (issued every 10 minutes, with the page automatically refreshed every 10 minutes)

About coastal observations | Map of coastal stations | Coastal observations for NT | Marine services | Other Formats
Station Details ID: 014508 Name: GOVE AIRPORT Lat: -12.27 Lon: 136.82 Height: 51.6 m
Data from the previous 72 hours. | See also: Recent months at Gove Airport
Date/Time
CST
Temp
°C
Wind Pressure Rain since
9am
mm
Weather Cloud Vis
km
Sea
Height
m
Swell
Dir  Spd
kts
Gust
kts
hPa Trend Height
m
Period
s
Dir
27/06:00pm 28.0 N 7 8 1008.6 F 0.0 - Mostly clear 10 - - - -
27/05:30pm 28.5 NNE 7 9 1008.6 - 0.0 - Partly cloudy 10 - - - -
27/05:00pm 29.2 NNE 8 10 1008.5 - 0.0 - Partly cloudy 10 - - - -
27/04:30pm 30.1 NNE 9 13 1008.4 - 0.0 - - 10 - - - -
27/04:00pm 30.3 NNE 9 11 1008.4 - 0.0 - Partly cloudy 10 - - - -
27/03:30pm 30.9 NNE 9 13 1008.7 - 0.0 - Partly cloudy 10 - - - -
27/03:00pm 30.9 NE 10 15 1008.9 S 0.0 - Mostly clear 10 - - - -
27/02:30pm 31.3 ENE 8 14 1009.1 - 0.0 - Partly cloudy 10 - - - -
27/02:00pm 31.4 ENE 10 15 1009.2 - 0.0 - Partly cloudy 10 - - - -
27/01:30pm 31.2 ENE 10 15 1009.7 - 0.0 - Partly cloudy 10 - - - -
27/01:00pm 31.4 E 10 14 1010.3 - 0.0 - Partly cloudy 10 - - - -
27/12:30pm 30.7 NE 9 15 1010.6 - 0.0 - Partly cloudy 10 - - - -
27/12:00pm 31.5 ENE 11 15 1011.0 R 0.0 - - 10 - - - -
27/11:30am 32.0 ENE 8 13 1011.2 - 0.0 - - 10 - - - -
27/11:00am 31.5 ENE 7 12 1011.5 - 0.0 - - 10 - - - -
27/10:30am 31.5 NE 7 11 1011.6 - 0.0 - - 10 - - - -
27/10:00am 31.3 NE 7 11 1011.7 - 0.0 - - 10 - - - -
27/09:30am 30.8 ENE 7 11 1011.9 - 0.0 - - 10 - - - -
27/09:00am 29.7 E 7 10 1011.8 F 0.0 - Mostly clear 10 - - - -
27/08:30am 28.6 E 5 8 1011.9 - 0.0 - Partly cloudy 10 - - - -
27/08:00am 27.9 E 3 5 1011.9 - 0.0 - - 10 - - - -
27/07:30am 26.1 S 2 3 1011.7 - 0.0 - - 10 - - - -
27/07:00am 25.0 S 3 4 1011.5 - 0.0 - - 10 - - - -
27/06:30am 24.1 S 4 5 1011.0 - 0.0 - - 8 - - - -
27/06:00am 23.7 CALM 0 3 1010.7 R 0.0 - - 8 - - - -
27/05:52am 23.7 SSE 3 5 1010.5 - 0.0 - - 8 - - - -
27/05:31am 23.7 S 2 4 1010.4 - 0.0 - - 6 - - - -
27/05:30am 23.7 S 1 4 1010.3 - 0.0 - - 7 - - - -
27/05:20am 23.7 CALM 0 0 1010.1 - 0.0 - - 7 - - - -
27/05:02am 23.8 CALM 0 0 1009.8 - 0.0 - - 6 - - - -
27/05:00am 23.8 CALM 0 0 1009.8 - 0.0 - - 7 - - - -
27/04:50am 23.8 CALM 0 0 1009.7 - 0.0 - - 7 - - - -
27/04:30am 23.8 CALM 0 0 1009.5 - 0.0 - - 6 - - - -
27/04:23am 24.2 CALM 0 0 1009.4 - 0.0 - - 6 - - - -
27/04:00am 24.3 CALM 0 0 1009.1 - 0.0 - - 9 - - - -
27/03:39am 24.2 CALM 0 0 1009.2 - 0.0 - - 7 - - - -
27/03:30am 24.1 CALM 0 0 1009.1 - 0.0 - - 7 - - - -
27/03:22am 24.2 CALM 0 0 1009.1 - 0.0 - - 6 - - - -
27/03:00am 24.4 CALM 0 2 1009.2 F 0.0 - Mostly clear 7 - - - -
27/02:36am 24.3 CALM 0 0 1009.0 - 0.0 - - 6 - - - -
27/02:30am 24.4 CALM 0 0 1009.0 - 0.0 - - 7 - - - -
27/02:06am 24.4 SSE 1 3 1009.1 - 0.0 - - 7 - - - -
27/02:00am 24.4 SSE 2 3 1009.2 - 0.0 - - 7 - - - -
27/01:53am 24.6 SSE 2 3 1009.2 - 0.0 - Partly cloudy 6 - - - -
27/01:30am 24.9 SSE 5 6 1009.6 - 0.0 - - 7 - - - -
27/01:00am 24.9 S 1 4 1010.0 - 0.0 - - 7 - - - -
27/12:30am 25.1 S 4 6 1010.6 - 0.0 - Partly cloudy 7 - - - -
27/12:00am 25.1 S 4 5 1011.0 R 0.0 - - 8 - - - -
 
Date/Time
CST
Temp
°C
Wind Pressure Rain since
9am
mm
Weather Cloud Vis
km
Sea
Height
m
Swell
Dir  Spd
kts
Gust
kts
hPa Trend Height
m
Period
s
Dir
26/11:30pm 26.1 E 7 8 1011.0 - 0.0 - - 10 - - - -
26/11:00pm 26.0 E 7 8 1011.3 - 0.0 - - 10 - - - -
26/10:30pm 25.5 ESE 3 4 1011.2 - 0.0 - - 10 - - - -
26/10:00pm 25.6 SE 3 4 1011.1 - 0.0 - - 10 - - - -
26/09:30pm 25.8 SE 2 3 1010.8 - 0.0 - - 10 - - - -
26/09:00pm 25.9 SE 3 4 1010.7 F 0.0 - - 10 - - - -
26/08:30pm 26.1 CALM 0 3 1010.4 - 0.0 - - 10 - - - -
26/08:00pm 26.5 ESE 3 5 1010.3 - 0.0 - - 10 - - - -
26/07:30pm 27.1 E 4 5 1010.1 - 0.0 - - 10 - - - -
26/07:00pm 27.3 ESE 5 7 1009.7 - 0.0 - - 10 - - - -
26/06:30pm 27.7 SE 6 8 1009.4 - 0.0 - - 10 - - - -
26/06:00pm 28.6 SE 7 9 1009.2 F 0.0 - - 10 - - - -
26/05:30pm 29.3 SSE 7 8 1008.9 - 0.0 - - 10 - - - -
26/05:00pm 29.7 SE 7 9 1008.7 - 0.0 - - 10 - - - -
26/04:30pm 30.0 SE 9 14 1008.7 - 0.0 - Partly cloudy 10 - - - -
26/04:00pm 30.7 SE 10 13 1008.8 - 0.0 - Partly cloudy 10 - - - -
26/03:30pm 30.6 ESE 11 16 1008.8 - 0.0 - Partly cloudy 10 - - - -
26/03:00pm 30.9 ESE 11 17 1009.0 R 0.0 - Partly cloudy 10 - - - -
26/02:30pm 31.4 ESE 11 17 1009.2 - 0.0 - Partly cloudy 10 - - - -
26/02:00pm 31.9 E 11 17 1009.4 - 0.0 - - 10 - - - -
26/01:30pm 32.2 E 9 12 1009.4 - 0.0 - - 10 - - - -
26/01:00pm 32.0 ESE 8 13 1009.7 - 0.0 - - 10 - - - -
26/12:30pm 31.5 ESE 8 11 1010.2 - 0.0 - - 10 - - - -
26/12:00pm 30.9 ENE 9 13 1010.6 F 0.0 - - 10 - - - -
26/11:30am 30.7 E 8 13 1011.0 - 0.0 - - 10 - - - -
26/11:00am 31.2 ENE 8 11 1011.1 - 0.0 - Partly cloudy 10 - - - -
26/10:30am 30.4 ENE 9 14 1011.5 - 0.0 - Mostly clear 10 - - - -
26/10:00am 30.3 ENE 7 11 1011.9 - 0.0 - Mostly clear 10 - - - -
26/09:30am 29.1 ENE 9 12 1012.0 - 0.0 - Mostly clear 10 - - - -
26/09:00am 29.4 E 9 14 1012.1 R 0.0 - Partly cloudy 10 - - - -
26/08:30am 28.7 ENE 9 12 1012.0 - 0.0 - Partly cloudy 10 - - - -
26/08:00am 27.4 E 6 8 1011.8 - 0.0 - - 10 - - - -
26/07:30am 25.5 SE 2 4 1011.6 - 0.0 - - 8 - - - -
26/07:13am 24.7 CALM 0 0 1011.3 - 0.0 - - 8 - - - -
26/07:00am 24.1 CALM 0 0 1011.1 - 0.0 - - 6 - - - -
26/06:55am 23.9 CALM 0 0 1011.0 - 0.0 - - 6 - - - -
26/06:34am 23.4 CALM 0 3 1010.7 - 0.0 - - 8 - - - -
26/06:30am 23.5 SE 1 3 1010.6 - 0.0 - - 7 - - - -
26/06:14am 23.5 SSE 2 4 1010.3 - 0.0 - Partly cloudy 6 - - - -
26/06:06am 23.5 CALM 0 0 1010.2 - 0.0 - Partly cloudy 7 - - - -
26/06:00am 23.4 SSE 1 3 1010.1 R 0.0 - Partly cloudy 7 - - - -
26/05:30am 23.3 SSE 1 3 1009.8 - 0.0 - Cloudy 9 - - - -
26/05:00am 22.9 S 1 4 1009.4 - 0.0 - Cloudy 8 - - - -
26/04:59am 22.9 S 1 4 1009.3 - 0.0 - Cloudy 8 - - - -
26/04:30am 22.4 CALM 0 0 1008.9 - 0.0 - Partly cloudy 3 - - - -
26/04:26am 22.4 CALM 0 0 1008.8 - 0.0 - Partly cloudy 4 - - - -
26/04:00am 22.7 S 1 3 1008.5 - 0.0 - - 6 - - - -
26/03:30am 22.6 S 1 3 1008.6 - 0.0 - - 6 - - - -
26/03:00am 22.7 CALM 0 0 1008.7 F 0.0 - - 5 - - - -
26/02:30am 22.9 CALM 0 0 1008.9 - 0.0 - - 5 - - - -
26/02:00am 23.1 CALM 0 0 1009.0 - 0.0 - - 6 - - - -
26/01:34am 23.5 CALM 0 0 1009.1 - 0.0 - - 6 - - - -
26/01:32am 23.5 CALM 0 3 1009.1 - 0.0 - - 7 - - - -
26/01:30am 23.7 S 1 5 1009.1 - 0.0 - - 7 - - - -
26/01:00am 23.4 CALM 0 0 1009.4 - 0.0 - - 6 - - - -
26/12:30am 23.5 CALM 0 0 1009.8 - 0.0 - - 6 - - - -
26/12:00am 23.8 CALM 0 0 1010.3 F 0.0 - - 6 - - - -
 
Date/Time
CST
Temp
°C
Wind Pressure Rain since
9am
mm
Weather Cloud Vis
km
Sea
Height
m
Swell
Dir  Spd
kts
Gust
kts
hPa Trend Height
m
Period
s
Dir
25/11:56pm 23.8 CALM 0 0 1010.4 - 0.0 - - 6 - - - -
25/11:30pm 24.0 CALM 0 0 1010.7 - 0.0 - - 7 - - - -
25/11:00pm 24.2 CALM 0 0 1011.0 - 0.0 - - 7 - - - -
25/10:30pm 24.4 CALM 0 0 1011.2 - 0.0 - - 9 - - - -
25/10:00pm 24.8 CALM 0 0 1011.1 - 0.0 - - 10 - - - -
25/09:30pm 25.1 SE 3 5 1010.9 - 0.0 - - 10 - - - -
25/09:00pm 25.8 SE 3 4 1010.7 R 0.0 - - 10 - - - -
25/08:30pm 26.7 ENE 2 4 1010.5 - 0.0 - - 10 - - - -
25/08:00pm 26.9 E 4 6 1010.1 - 0.0 - - 10 - - - -
25/07:30pm 27.1 ESE 7 8 1010.1 - 0.0 - - 10 - - - -
25/07:00pm 27.5 ESE 8 11 1010.0 - 0.0 - Partly cloudy 10 - - - -
25/06:30pm 27.7 ENE 7 9 1008.9 - 0.0 - Partly cloudy 10 - - - -
25/06:00pm 28.0 NE 7 9 1008.6 R 0.0 - Mostly clear 10 - - - -
25/05:30pm 28.5 NNE 9 11 1008.3 - 0.0 - Partly cloudy 10 - - - -
25/05:00pm 28.6 NNE 8 11 1008.0 - 0.0 - Partly cloudy 10 - - - -
25/04:30pm 29.6 NE 9 11 1007.8 - 0.0 - - 10 - - - -
25/04:00pm 30.4 NNE 7 11 1007.5 - 0.0 - Partly cloudy 10 - - - -
25/03:30pm 30.2 NE 7 9 1007.4 - 0.0 - Partly cloudy 10 - - - -
25/03:00pm 30.4 NE 7 10 1007.6 R 0.0 - - 10 - - - -
25/02:30pm 30.5 NE 9 13 1007.7 - 0.0 - - 10 - - - -
25/02:00pm 30.9 NE 10 13 1007.8 - 0.0 - Partly cloudy 10 - - - -
25/01:30pm 30.1 NNE 6 11 1008.0 - 0.0 - Partly cloudy 10 - - - -
25/01:00pm 29.4 NNE 8 11 1008.4 - 0.0 - Cloudy 10 - - - -
25/12:30pm 31.0 NE 7 11 1008.8 - 0.0 - Partly cloudy 10 - - - -
25/12:00pm 29.8 NNE 8 12 1009.3 F 0.0 - Partly cloudy 10 - - - -
25/11:30am 29.6 N 7 11 1009.9 - 0.0 - Partly cloudy 10 - - - -
25/11:00am 29.3 NNE 7 12 1010.3 - 0.0 - Partly cloudy 10 - - - -
25/10:30am 29.5 NE 8 11 1010.5 - 0.0 - Partly cloudy 10 - - - -
25/10:00am 28.8 NE 8 10 1010.6 - 0.0 - Partly cloudy 10 - - - -
25/09:30am 28.6 NNE 9 12 1010.6 - 0.0 - Partly cloudy 10 - - - -
25/09:00am 28.4 NE 9 14 1010.6 R 0.0 - Mostly clear 10 - - - -
25/08:46am 27.7 NNE 9 12 1010.7 - 0.0 - Partly cloudy 10 - - - -
25/08:30am 28.1 NE 6 9 1010.4 - 0.0 - Partly cloudy 10 - - - -
25/08:10am 27.7 NE 6 8 1010.2 - 0.0 - Partly cloudy 10 - - - -
25/08:00am 27.4 NE 4 7 1010.1 - 0.0 - Partly cloudy 10 - - - -
25/07:30am 26.1 N 4 6 1009.7 - 0.0 - - 10 - - - -
25/07:00am 24.9 NNE 5 7 1009.2 - 0.0 - - 10 - - - -
25/06:30am 22.2 NNE 3 5 1008.8 - 0.0 - - 10 - - - -
25/06:00am 21.3 CALM 0 0 1008.4 S 0.0 - - 10 - - - -
25/05:30am 21.2 CALM 0 0 1008.3 - 0.0 - - 10 - - - -
25/05:00am 21.4 CALM 0 0 1008.0 - 0.0 - - 10 - - - -
25/04:30am 21.7 CALM 0 0 1007.7 - 0.0 - - 10 - - - -
25/04:00am 21.9 CALM 0 0 1007.6 - 0.0 - - 10 - - - -
25/03:30am 22.5 ENE 3 4 1007.7 - 0.0 - - 10 - - - -
25/03:00am 23.0 NE 4 5 1007.6 F 0.0 - - 10 - - - -
25/02:30am 22.7 NE 4 5 1007.7 - 0.0 - - 10 - - - -
25/02:00am 22.6 SSE 3 4 1008.0 - 0.0 - - 10 - - - -
25/01:30am 23.0 ESE 3 4 1008.2 - 0.0 - - 10 - - - -
25/01:00am 23.6 ENE 3 5 1008.7 - 0.0 - - 10 - - - -
25/12:30am 22.9 E 5 5 1008.9 - 0.0 - - 10 - - - -
25/12:00am 23.1 ESE 3 4 1009.2 F 0.0 - - 10 - - - -
 
Date/Time
CST
Temp
°C
Wind Pressure Rain since
9am
mm
Weather Cloud Vis
km
Sea
Height
m
Swell
Dir  Spd
kts
Gust
kts
hPa Trend Height
m
Period
s
Dir
24/11:30pm 23.2 ESE 4 4 1009.7 - 0.0 - - 10 - - - -
24/11:00pm 23.5 ESE 4 5 1010.0 - 0.0 - - 10 - - - -
24/10:30pm 23.6 E 4 4 1010.0 - 0.0 - - 10 - - - -
24/10:00pm 24.0 E 4 5 1010.1 - 0.0 - - 10 - - - -
24/09:30pm 24.3 CALM 0 0 1009.8 - 0.0 - - 10 - - - -
24/09:00pm 24.4 ESE 3 4 1009.5 R 0.0 - - 10 - - - -
24/08:30pm 24.5 SE 3 4 1009.2 - 0.0 - - 10 - - - -
24/08:00pm 24.9 SE 1 3 1009.0 - 0.0 - - 10 - - - -
24/07:30pm 25.3 SSE 3 4 1008.7 - 0.0 - - 10 - - - -
24/07:00pm 25.9 SE 4 5 1008.4 - 0.0 - - 10 - - - -
24/06:30pm 26.8 E 6 9 1008.0 - 0.0 - - 10 - - - -

Other Formats:

Comma delimited format used in spreadsheet applications
http://www.bom.gov.au/fwo/IDD60701/IDD60701.94150.axf

JavaScript Object Notation format (JSON) in row-major order
http://www.bom.gov.au/fwo/IDD60701/IDD60701.94150.json